createdAt,value
2023-05-02T00:01:20.980Z,12.87
2023-05-02T00:03:48.359Z,12.97
2023-05-02T00:06:15.388Z,11.53
2023-05-02T00:08:42.392Z,12.33
2023-05-02T00:11:09.298Z,12.50
2023-05-02T00:13:36.280Z,12.07
2023-05-02T00:16:03.318Z,12.87
2023-05-02T00:18:30.314Z,12.70
2023-05-02T00:20:57.204Z,10.70
2023-05-02T00:23:24.273Z,11.43
2023-05-02T00:25:51.371Z,10.60
2023-05-02T00:28:18.744Z,9.40
2023-05-02T00:30:46.816Z,9.00
2023-05-02T00:33:15.273Z,8.50
2023-05-02T00:35:42.410Z,9.00
2023-05-02T00:38:09.606Z,8.27
2023-05-02T00:40:53.524Z,7.97
2023-05-02T00:43:21.260Z,7.70
2023-05-02T00:45:48.802Z,7.63
2023-05-02T00:48:20.324Z,7.97
2023-05-02T00:50:47.121Z,7.87
2023-05-02T00:53:13.917Z,7.30
2023-05-02T00:55:40.780Z,7.13
2023-05-02T00:58:13.756Z,7.80
2023-05-02T01:00:49.823Z,7.13
2023-05-02T01:03:30.067Z,8.20
2023-05-02T01:06:20.776Z,8.00
2023-05-02T01:08:55.167Z,8.00
2023-05-02T01:11:52.200Z,8.70
2023-05-02T01:14:21.365Z,8.00
2023-05-02T01:16:49.845Z,7.53
2023-05-02T01:19:29.434Z,8.13
2023-05-02T01:21:59.136Z,7.50
2023-05-02T01:24:32.758Z,7.67
2023-05-02T01:27:05.743Z,7.53
2023-05-02T01:29:33.208Z,8.97
2023-05-02T01:32:02.450Z,8.70
2023-05-02T01:34:31.421Z,8.90
2023-05-02T01:36:59.468Z,8.83
2023-05-02T01:39:27.461Z,9.37
2023-05-02T01:41:57.437Z,9.80
2023-05-02T01:44:25.382Z,10.57
2023-05-02T01:46:55.066Z,10.30
2023-05-02T01:49:24.672Z,9.80
2023-05-02T01:51:52.988Z,9.63
2023-05-02T01:54:23.113Z,9.60
2023-05-02T01:56:52.216Z,10.63
2023-05-02T01:59:21.794Z,10.63
2023-05-02T02:01:50.427Z,10.13
2023-05-02T02:04:19.436Z,11.40
2023-05-02T02:06:51.071Z,10.20
2023-05-02T02:09:18.194Z,9.87
2023-05-02T02:11:52.336Z,9.83
2023-05-02T02:14:21.737Z,9.13
2023-05-02T02:16:50.867Z,9.43
2023-05-02T02:19:18.719Z,9.23
2023-05-02T02:21:48.300Z,8.97
2023-05-02T02:24:22.719Z,9.67
2023-05-02T02:26:49.662Z,9.90
2023-05-02T02:29:16.525Z,10.30
2023-05-02T02:31:43.554Z,10.17
2023-05-02T02:34:11.166Z,10.57
2023-05-02T02:36:47.902Z,10.83
2023-05-02T02:39:44.210Z,11.00
2023-05-02T02:42:45.374Z,10.83
2023-05-02T02:46:05.991Z,10.57
2023-05-02T02:48:43.423Z,9.73
2023-05-02T02:51:25.823Z,10.70
2023-05-02T02:54:27.124Z,10.40
2023-05-02T02:57:14.031Z,9.40
2023-05-02T02:59:47.326Z,10.00
2023-05-02T03:02:18.831Z,8.40
2023-05-02T03:04:48.656Z,8.13
2023-05-02T03:07:15.699Z,7.57
2023-05-02T03:09:46.988Z,7.30
2023-05-02T03:12:14.358Z,6.47
2023-05-02T03:14:41.821Z,5.60
2023-05-02T03:17:08.661Z,5.37
2023-05-02T03:19:35.855Z,5.50
2023-05-02T03:22:02.871Z,4.67
2023-05-02T03:24:29.758Z,4.77
2023-05-02T03:26:57.399Z,4.13
2023-05-02T03:29:24.608Z,4.00
2023-05-02T03:31:52.025Z,3.63
2023-05-02T03:34:19.816Z,4.00
2023-05-02T03:36:46.685Z,3.60
2023-05-02T03:39:13.473Z,3.47
2023-05-02T03:41:40.354Z,3.43
2023-05-02T03:44:07.204Z,3.10
2023-05-02T03:46:34.058Z,3.40
2023-05-02T03:49:00.974Z,3.37
2023-05-02T03:51:27.861Z,2.77
2023-05-02T03:53:54.863Z,2.30
2023-05-02T03:56:21.794Z,2.00
2023-05-02T03:58:49.411Z,1.80
2023-05-02T04:01:17.221Z,1.90
2023-05-02T04:03:44.527Z,1.43
2023-05-02T04:06:13.159Z,1.43
2023-05-02T04:08:40.255Z,1.30
2023-05-02T04:11:07.387Z,1.53
2023-05-02T04:13:34.276Z,1.93
2023-05-02T04:16:01.007Z,1.67
2023-05-02T04:18:27.956Z,1.43
2023-05-02T04:20:54.804Z,1.50
2023-05-02T04:23:21.664Z,1.43
2023-05-02T04:25:56.243Z,1.13
2023-05-02T04:28:23.295Z,1.50
2023-05-02T04:30:50.773Z,1.40
2023-05-02T04:33:21.356Z,1.60
2023-05-02T04:35:48.300Z,1.20
2023-05-02T04:38:15.760Z,1.40
2023-05-02T04:40:42.674Z,1.40
2023-05-02T04:43:09.642Z,1.40
2023-05-02T04:45:36.983Z,1.40
2023-05-02T04:48:04.706Z,1.30
2023-05-02T04:50:32.523Z,1.97
2023-05-02T04:52:59.586Z,1.37
2023-05-02T04:55:26.651Z,1.27
2023-05-02T04:57:53.508Z,1.50
2023-05-02T05:00:21.875Z,1.30
2023-05-02T05:02:48.899Z,1.30
2023-05-02T05:05:15.914Z,2.00
2023-05-02T05:07:43.542Z,1.13
2023-05-02T05:10:11.599Z,1.50
2023-05-02T05:12:38.481Z,1.50
2023-05-02T05:15:05.831Z,1.43
2023-05-02T05:17:32.775Z,1.53
2023-05-02T05:19:59.770Z,1.50
2023-05-02T05:22:26.705Z,1.67
2023-05-02T05:24:54.608Z,1.40
2023-05-02T05:27:22.039Z,1.53
2023-05-02T05:29:48.929Z,1.67
2023-05-02T05:32:15.972Z,1.70
2023-05-02T05:34:42.919Z,1.83
2023-05-02T05:37:09.791Z,1.50
2023-05-02T05:39:36.697Z,1.77
2023-05-02T05:42:03.788Z,1.60
2023-05-02T05:44:31.677Z,1.30
2023-05-02T05:46:58.784Z,1.90
2023-05-02T05:49:25.782Z,1.47
2023-05-02T05:51:52.759Z,1.47
2023-05-02T05:54:19.645Z,1.87
2023-05-02T05:56:46.861Z,1.70
2023-05-02T05:59:13.820Z,1.30
2023-05-02T06:01:41.027Z,1.27
2023-05-02T06:04:08.288Z,1.53
2023-05-02T06:06:35.660Z,1.40
2023-05-02T06:09:02.682Z,1.40
2023-05-02T06:11:29.758Z,1.70
2023-05-02T06:13:56.568Z,1.60
2023-05-02T06:16:23.444Z,1.60
2023-05-02T06:18:51.806Z,1.30
2023-05-02T06:21:18.739Z,1.90
2023-05-02T06:23:46.058Z,2.20
2023-05-02T06:26:12.858Z,1.77
2023-05-02T06:28:39.831Z,1.87
2023-05-02T06:31:06.927Z,1.97
2023-05-02T06:33:34.526Z,1.93
2023-05-02T06:36:02.184Z,2.20
2023-05-02T06:38:29.454Z,2.10
2023-05-02T06:40:56.484Z,1.67
2023-05-02T06:43:23.449Z,2.27
2023-05-02T06:45:54.602Z,2.00
2023-05-02T06:48:21.903Z,2.43
2023-05-02T06:50:49.686Z,2.23
2023-05-02T06:53:16.774Z,2.50
2023-05-02T06:55:45.780Z,2.30
2023-05-02T06:58:13.015Z,2.27
2023-05-02T07:00:39.870Z,3.47
2023-05-02T07:03:06.892Z,2.53
2023-05-02T07:05:33.800Z,2.60
2023-05-02T07:08:00.831Z,2.33
2023-05-02T07:10:27.813Z,2.57
2023-05-02T07:12:54.730Z,2.27
2023-05-02T07:15:21.697Z,2.23
2023-05-02T07:17:49.704Z,2.83
2023-05-02T07:20:16.743Z,2.40
2023-05-02T07:22:43.644Z,2.50
2023-05-02T07:25:10.954Z,2.27
2023-05-02T07:27:38.084Z,2.47
2023-05-02T07:30:06.881Z,1.77
2023-05-02T07:32:33.982Z,2.33
2023-05-02T07:35:01.826Z,2.43
2023-05-02T07:37:34.611Z,2.23
2023-05-02T07:40:02.342Z,2.33
2023-05-02T07:42:30.959Z,2.33
2023-05-02T07:44:59.171Z,2.37
2023-05-02T07:47:29.481Z,2.07
2023-05-02T07:49:56.690Z,2.57
2023-05-02T07:52:23.849Z,1.90
2023-05-02T07:54:51.409Z,1.87
2023-05-02T07:57:19.043Z,2.10
2023-05-02T07:59:46.154Z,2.00
2023-05-02T08:02:14.125Z,2.10
2023-05-02T08:04:41.503Z,1.90
2023-05-02T08:07:08.637Z,2.20
2023-05-02T08:09:35.513Z,1.50
2023-05-02T08:12:03.417Z,1.53
2023-05-02T08:14:30.537Z,2.10
2023-05-02T08:16:59.102Z,1.83
2023-05-02T08:19:26.569Z,2.20
2023-05-02T08:21:56.628Z,1.67
2023-05-02T08:24:23.562Z,2.20
2023-05-02T08:26:50.932Z,1.67
2023-05-02T08:29:17.837Z,1.50
2023-05-02T08:31:44.827Z,1.40
2023-05-02T08:34:11.839Z,1.97
2023-05-02T08:36:38.736Z,1.50
2023-05-02T08:39:08.107Z,1.63
2023-05-02T08:41:35.427Z,1.97
2023-05-02T08:44:04.102Z,1.40
2023-05-02T08:46:32.549Z,3.10
2023-05-02T08:49:00.169Z,1.43
2023-05-02T08:51:29.438Z,1.87
2023-05-02T08:53:58.258Z,1.87
2023-05-02T08:56:25.358Z,1.50
2023-05-02T08:58:52.347Z,1.60
2023-05-02T09:01:23.799Z,2.03
2023-05-02T09:03:50.886Z,2.33
2023-05-02T09:06:22.739Z,1.67
2023-05-02T09:08:53.161Z,1.90
2023-05-02T09:11:20.233Z,1.83
2023-05-02T09:13:51.919Z,2.00
2023-05-02T09:16:25.830Z,2.27
2023-05-02T09:18:58.110Z,1.73
2023-05-02T09:21:34.913Z,1.73
2023-05-02T09:24:03.422Z,2.20
2023-05-02T09:26:34.053Z,2.10
2023-05-02T09:29:05.447Z,2.10
2023-05-02T09:31:55.065Z,2.20
2023-05-02T09:34:23.473Z,2.70
2023-05-02T09:36:54.198Z,2.10
2023-05-02T09:39:26.253Z,1.77
2023-05-02T09:41:54.338Z,1.87
2023-05-02T09:44:27.512Z,1.77
2023-05-02T09:46:57.471Z,1.67
2023-05-02T09:49:47.052Z,1.70
2023-05-02T09:52:15.944Z,1.80
2023-05-02T09:54:43.568Z,1.70
2023-05-02T09:57:11.504Z,1.27
2023-05-02T09:59:40.094Z,1.20
2023-05-02T10:02:09.770Z,1.50
2023-05-02T10:04:37.520Z,1.60
2023-05-02T10:07:06.649Z,1.93
2023-05-02T10:09:37.056Z,1.83
2023-05-02T10:12:05.186Z,1.53
2023-05-02T10:14:36.037Z,2.00
2023-05-02T10:17:13.333Z,1.90
2023-05-02T10:19:59.322Z,2.20
2023-05-02T10:22:27.021Z,2.07
2023-05-02T10:24:54.900Z,1.80
2023-05-02T10:27:22.543Z,2.27
2023-05-02T10:29:51.335Z,1.60
2023-05-02T10:32:18.643Z,2.10
2023-05-02T10:34:47.752Z,1.40
2023-05-02T10:37:15.955Z,1.80
2023-05-02T10:39:42.855Z,1.63
2023-05-02T10:42:10.722Z,1.73
2023-05-02T10:44:40.024Z,1.57
2023-05-02T10:47:23.252Z,1.77
2023-05-02T10:49:54.498Z,1.43
2023-05-02T10:52:38.798Z,1.60
2023-05-02T10:55:24.521Z,1.80
2023-05-02T10:57:57.944Z,1.70
2023-05-02T11:00:29.664Z,1.53
2023-05-02T11:02:56.946Z,1.87
2023-05-02T11:05:24.914Z,1.83
2023-05-02T11:08:22.973Z,2.27
2023-05-02T11:10:50.254Z,1.67
2023-05-02T11:13:37.071Z,2.03
2023-05-02T11:16:04.067Z,2.13
2023-05-02T11:19:01.013Z,1.43
2023-05-02T11:21:29.540Z,1.43
2023-05-02T11:24:34.068Z,1.77
2023-05-02T11:27:28.905Z,1.80
2023-05-02T11:30:00.408Z,2.00
2023-05-02T11:32:45.657Z,1.67
2023-05-02T11:35:31.197Z,2.57
2023-05-02T11:38:00.691Z,1.80
2023-05-02T11:40:28.371Z,1.60
2023-05-02T11:42:56.447Z,1.60
2023-05-02T11:45:33.370Z,1.83
2023-05-02T11:48:00.352Z,1.57
2023-05-02T11:50:30.254Z,1.63
2023-05-02T11:52:57.360Z,1.40
2023-05-02T11:55:24.349Z,1.87
2023-05-02T11:57:51.575Z,1.37
2023-05-02T12:00:18.543Z,1.73
2023-05-02T12:02:49.772Z,1.90
2023-05-02T12:05:30.048Z,1.80
2023-05-02T12:07:57.074Z,1.80
2023-05-02T12:10:35.212Z,1.33
2023-05-02T12:13:06.251Z,2.00
2023-05-02T12:15:34.061Z,1.50
2023-05-02T12:18:02.041Z,1.80
2023-05-02T12:20:29.003Z,2.10
2023-05-02T12:22:56.345Z,1.47
2023-05-02T12:25:23.282Z,2.07
2023-05-02T12:28:00.623Z,1.20
2023-05-02T12:30:31.328Z,2.10
2023-05-02T12:32:59.666Z,1.47
2023-05-02T12:35:26.926Z,1.70
2023-05-02T12:37:54.434Z,1.80
2023-05-02T12:40:21.759Z,2.07
2023-05-02T12:43:07.540Z,1.77
2023-05-02T12:45:34.706Z,1.73
2023-05-02T12:48:25.709Z,1.53
2023-05-02T12:50:54.801Z,1.83
2023-05-02T12:53:44.310Z,1.70
2023-05-02T12:56:12.128Z,1.57
2023-05-02T12:58:47.299Z,1.80
2023-05-02T13:01:15.533Z,2.23
2023-05-02T13:03:43.954Z,2.43
2023-05-02T13:06:11.420Z,2.20
2023-05-02T13:08:38.352Z,1.73
2023-05-02T13:11:05.468Z,1.57
2023-05-02T13:13:32.813Z,2.00
2023-05-02T13:15:59.903Z,1.90
2023-05-02T13:18:28.164Z,1.90
2023-05-02T13:20:55.389Z,1.67
2023-05-02T13:23:22.297Z,1.90
2023-05-02T13:25:49.170Z,2.33
2023-05-02T13:28:16.321Z,1.90
2023-05-02T13:30:43.237Z,2.10
2023-05-02T13:33:10.132Z,2.20
2023-05-02T13:35:37.173Z,2.17
2023-05-02T13:38:04.293Z,1.90
2023-05-02T13:40:31.086Z,2.07
2023-05-02T13:42:58.025Z,2.07
2023-05-02T13:45:25.000Z,2.10
2023-05-02T13:47:51.772Z,2.30
2023-05-02T13:50:18.674Z,2.17
2023-05-02T13:52:48.408Z,2.20
2023-05-02T13:55:17.880Z,2.13
2023-05-02T13:57:45.217Z,2.30
2023-05-02T14:00:12.713Z,2.30
2023-05-02T14:02:39.648Z,2.10
2023-05-02T14:05:07.203Z,2.83
2023-05-02T14:07:34.098Z,2.23
2023-05-02T14:10:01.098Z,2.70
2023-05-02T14:12:28.412Z,2.17
2023-05-02T14:14:55.242Z,2.67
2023-05-02T14:17:25.112Z,2.57
2023-05-02T14:19:52.179Z,2.40
2023-05-02T14:22:19.080Z,2.97
2023-05-02T14:24:45.949Z,2.57
2023-05-02T14:27:18.053Z,2.30
2023-05-02T14:29:46.000Z,3.00
2023-05-02T14:32:13.018Z,2.63
2023-05-02T14:34:40.723Z,2.40
2023-05-02T14:37:09.157Z,2.63
2023-05-02T14:39:37.001Z,2.27
2023-05-02T14:42:04.515Z,2.33
2023-05-02T14:44:31.725Z,2.10
2023-05-02T14:46:58.779Z,2.90
2023-05-02T14:49:25.765Z,2.60
2023-05-02T14:51:52.931Z,2.20
2023-05-02T14:54:20.479Z,2.43
2023-05-02T14:56:48.356Z,2.70
2023-05-02T14:59:15.766Z,2.37
2023-05-02T15:01:42.823Z,3.07
2023-05-02T15:04:10.509Z,2.77
2023-05-02T15:06:38.286Z,2.90
2023-05-02T15:09:05.619Z,2.43
2023-05-02T15:11:32.455Z,3.10
2023-05-02T15:13:59.724Z,3.20
2023-05-02T15:16:27.579Z,2.33
2023-05-02T15:18:54.823Z,2.53
2023-05-02T15:21:22.070Z,3.03
2023-05-02T15:23:49.053Z,2.87
2023-05-02T15:26:16.062Z,2.60
2023-05-02T15:28:42.981Z,3.17
2023-05-02T15:31:09.763Z,2.20
2023-05-02T15:33:37.949Z,2.50
2023-05-02T15:36:05.053Z,2.50
2023-05-02T15:38:34.082Z,3.30
2023-05-02T15:41:00.934Z,4.07
2023-05-02T15:43:28.010Z,2.90
2023-05-02T15:45:56.774Z,2.90
2023-05-02T15:48:26.713Z,3.33
2023-05-02T15:50:53.719Z,2.53
2023-05-02T15:53:23.919Z,2.50
2023-05-02T15:55:52.723Z,2.17
2023-05-02T15:58:19.899Z,3.13
2023-05-02T16:00:47.587Z,2.60
2023-05-02T16:03:15.648Z,2.70
2023-05-02T16:05:42.702Z,2.80
2023-05-02T16:08:09.669Z,2.50
2023-05-02T16:10:39.233Z,3.80
2023-05-02T16:13:06.190Z,3.13
2023-05-02T16:15:33.104Z,3.73
2023-05-02T16:18:00.028Z,2.93
2023-05-02T16:20:28.405Z,2.33
2023-05-02T16:22:55.330Z,2.40
2023-05-02T16:25:22.353Z,2.50
2023-05-02T16:27:49.427Z,2.17
2023-05-02T16:30:16.404Z,2.20
2023-05-02T16:32:43.433Z,2.07
2023-05-02T16:35:13.109Z,2.30
2023-05-02T16:37:41.301Z,2.00
2023-05-02T16:40:09.177Z,2.17
2023-05-02T16:42:36.461Z,2.43
2023-05-02T16:45:03.813Z,2.30
2023-05-02T16:47:30.938Z,2.97
2023-05-02T16:49:59.079Z,2.63
2023-05-02T16:52:26.862Z,2.20
2023-05-02T16:54:53.950Z,2.60
2023-05-02T16:57:21.570Z,2.97
2023-05-02T16:59:51.594Z,1.87
2023-05-02T17:02:21.051Z,1.87
2023-05-02T17:04:49.794Z,2.53
2023-05-02T17:07:17.021Z,2.50
2023-05-02T17:09:44.595Z,2.50
2023-05-02T17:12:12.244Z,2.43
2023-05-02T17:14:42.817Z,2.07
2023-05-02T17:17:10.103Z,1.90
2023-05-02T17:19:37.274Z,2.00
2023-05-02T17:22:05.468Z,1.87
2023-05-02T17:24:33.288Z,1.63
2023-05-02T17:27:01.549Z,1.60
2023-05-02T17:29:28.546Z,1.77
2023-05-02T17:32:01.649Z,2.10
2023-05-02T17:34:30.335Z,2.23
2023-05-02T17:36:57.240Z,1.90
2023-05-02T17:39:24.082Z,2.10
2023-05-02T17:41:50.942Z,2.10
2023-05-02T17:44:17.897Z,1.70
2023-05-02T17:46:44.893Z,2.00
2023-05-02T17:49:11.850Z,1.77
2023-05-02T17:51:38.780Z,2.40
2023-05-02T17:54:05.937Z,1.57
2023-05-02T17:56:35.074Z,2.10
2023-05-02T17:59:02.044Z,1.80
2023-05-02T18:01:28.919Z,1.57
2023-05-02T18:03:56.004Z,2.00
2023-05-02T18:06:23.172Z,1.37
2023-05-02T18:08:50.126Z,1.40
2023-05-02T18:11:18.360Z,1.83
2023-05-02T18:13:45.923Z,1.40
2023-05-02T18:16:14.045Z,1.63
2023-05-02T18:18:41.418Z,1.70
2023-05-02T18:21:09.646Z,1.70
2023-05-02T18:23:36.655Z,1.60
2023-05-02T18:26:03.982Z,1.70
2023-05-02T18:28:30.795Z,1.87
2023-05-02T18:30:57.548Z,1.53
2023-05-02T18:33:24.489Z,1.53
2023-05-02T18:35:51.336Z,1.73
2023-05-02T18:38:18.431Z,1.73
2023-05-02T18:40:45.392Z,1.57
2023-05-02T18:43:12.175Z,2.17
2023-05-02T18:45:38.958Z,1.60
2023-05-02T18:48:06.102Z,1.70
2023-05-02T18:50:33.012Z,1.50
2023-05-02T18:52:59.928Z,1.60
2023-05-02T18:55:26.790Z,1.77
2023-05-02T18:57:53.671Z,1.60
2023-05-02T19:00:20.971Z,1.73
2023-05-02T19:02:50.950Z,1.80
2023-05-02T19:05:17.910Z,1.57
2023-05-02T19:07:45.033Z,1.30
2023-05-02T19:10:12.474Z,1.70
2023-05-02T19:12:40.685Z,1.73
2023-05-02T19:15:09.134Z,1.50
2023-05-02T19:17:36.672Z,1.70
2023-05-02T19:20:05.964Z,1.50
2023-05-02T19:22:34.789Z,1.83
2023-05-02T19:25:02.142Z,1.60
2023-05-02T19:27:29.397Z,1.70
2023-05-02T19:29:58.199Z,1.63
2023-05-02T19:32:25.427Z,1.60
2023-05-02T19:34:52.392Z,1.60
2023-05-02T19:37:19.270Z,1.70
2023-05-02T19:39:46.167Z,1.20
2023-05-02T19:42:13.121Z,1.63
2023-05-02T19:44:40.199Z,1.57
2023-05-02T19:47:07.541Z,1.80
2023-05-02T19:49:35.063Z,1.50
2023-05-02T19:52:01.929Z,1.90
2023-05-02T19:54:42.445Z,1.80
2023-05-02T19:57:09.289Z,1.77
2023-05-02T19:59:36.272Z,1.57
2023-05-02T20:02:03.202Z,1.70
2023-05-02T20:04:30.064Z,1.90
2023-05-02T20:06:56.925Z,1.73
2023-05-02T20:09:23.784Z,1.63
2023-05-02T20:11:50.833Z,1.43
2023-05-02T20:14:18.891Z,1.57
2023-05-02T20:16:46.302Z,1.40
2023-05-02T20:19:14.252Z,2.00
2023-05-02T20:21:41.288Z,2.03
2023-05-02T20:24:08.559Z,1.73
2023-05-02T20:26:35.476Z,1.50
2023-05-02T20:29:03.508Z,1.60
2023-05-02T20:31:30.629Z,1.47
2023-05-02T20:33:57.689Z,1.47
2023-05-02T20:36:24.505Z,1.67
2023-05-02T20:38:51.576Z,1.40
2023-05-02T20:41:18.414Z,1.50
2023-05-02T20:43:45.815Z,1.23
2023-05-02T20:46:14.070Z,1.63
2023-05-02T20:48:41.473Z,1.57
2023-05-02T20:51:08.820Z,1.20
2023-05-02T20:53:37.478Z,1.60
2023-05-02T20:56:05.052Z,1.40
2023-05-02T20:58:32.271Z,1.40
2023-05-02T21:00:59.561Z,1.90
2023-05-02T21:03:27.840Z,1.40
2023-05-02T21:05:56.507Z,1.77
2023-05-02T21:08:23.747Z,1.57
2023-05-02T21:10:51.526Z,1.43
2023-05-02T21:13:19.672Z,1.33
2023-05-02T21:15:46.678Z,2.10
2023-05-02T21:18:13.764Z,1.60
2023-05-02T21:20:41.588Z,2.30
2023-05-02T21:23:11.259Z,1.50
2023-05-02T21:25:38.614Z,1.70
2023-05-02T21:28:06.027Z,1.40
2023-05-02T21:30:33.086Z,1.90
2023-05-02T21:33:00.181Z,1.40
2023-05-02T21:35:28.667Z,1.40
2023-05-02T21:37:55.588Z,2.03
2023-05-02T21:40:22.436Z,1.67
2023-05-02T21:42:49.293Z,1.90
2023-05-02T21:45:16.189Z,1.83
2023-05-02T21:47:43.482Z,1.80
2023-05-02T21:50:10.626Z,1.60
2023-05-02T21:52:37.531Z,2.03
2023-05-02T21:55:04.658Z,2.00
2023-05-02T21:57:31.610Z,2.23
2023-05-02T21:59:58.485Z,1.80
2023-05-02T22:02:25.357Z,2.00
2023-05-02T22:04:52.226Z,2.00
2023-05-02T22:07:19.096Z,2.03
2023-05-02T22:09:46.273Z,1.80
2023-05-02T22:12:13.219Z,1.90
2023-05-02T22:14:44.997Z,1.97
2023-05-02T22:17:13.382Z,2.00
2023-05-02T22:19:40.672Z,2.20
2023-05-02T22:22:07.720Z,2.00
2023-05-02T22:24:34.762Z,2.30
2023-05-02T22:27:02.711Z,2.03
2023-05-02T22:29:29.619Z,2.33
2023-05-02T22:31:56.613Z,1.87
2023-05-02T22:34:23.537Z,1.83
2023-05-02T22:36:50.566Z,2.17
2023-05-02T22:39:17.986Z,2.40
2023-05-02T22:41:44.800Z,2.23
2023-05-02T22:44:11.707Z,1.90
2023-05-02T22:46:39.228Z,2.77
2023-05-02T22:49:10.485Z,2.37
2023-05-02T22:51:40.417Z,2.13
2023-05-02T22:54:08.611Z,2.30
2023-05-02T22:56:35.602Z,2.43
2023-05-02T22:59:02.605Z,1.93
2023-05-02T23:01:29.533Z,2.33
2023-05-02T23:03:56.607Z,2.10
2023-05-02T23:06:23.583Z,2.47
2023-05-02T23:08:50.558Z,2.60
2023-05-02T23:11:17.467Z,2.37
2023-05-02T23:13:44.432Z,2.83
2023-05-02T23:16:11.409Z,2.57
2023-05-02T23:18:38.343Z,2.53
2023-05-02T23:21:05.366Z,2.27
2023-05-02T23:23:32.261Z,2.10
2023-05-02T23:25:59.121Z,2.80
2023-05-02T23:28:26.420Z,2.53
2023-05-02T23:30:53.813Z,2.70
2023-05-02T23:33:21.278Z,2.30
2023-05-02T23:35:48.460Z,2.57
2023-05-02T23:38:15.894Z,2.37
2023-05-02T23:40:42.971Z,2.50
2023-05-02T23:43:10.933Z,2.23
2023-05-02T23:45:37.817Z,2.43
2023-05-02T23:48:04.880Z,2.17
2023-05-02T23:50:32.978Z,2.67
2023-05-02T23:52:59.852Z,2.17
2023-05-02T23:55:27.094Z,2.50
2023-05-02T23:57:53.982Z,2.27
